Archival Weather

Chicago O'Hare International

Chicago, Illinois (KORD)

Report from: Tuesday, December 13, 2022 10:51 AM CST
Current time: Monday, June 24, 2024 3:47 AM CDT

Current weather – Weather history – Daily summaries
Weather forecast

Temperature2.8°C (37.0°F)
Wind chill-1.7°C (28.9°F)
Dew point-1.7°C (28.9°F)
Winds 11 kts (5.7 m/s, 12.7 mph) East-Southeast (120°)
Visibility10 mi. (16.1 km)
Clouds Ceiling: Overcast 1,900 ft. (579 m)
Altimeter30.22 in.Hg (1023 mB)
Relative humidity72 %
Density altitude-1,760 ft. (-537 m)
Sea-level pressure102.4 kPa (1024 mB, 30.24 in.Hg)
Remarks Automated weather observing station with precipitation discriminator
Flight conditions Marginal Visual Meteorological Conditions
Raw dataKORD 131651Z 12011KT 10SM OVC019 03/M02 A3022 RMK AO2 SLP239 T00281017
An error has occurred. This application may no longer respond until reloaded. Reload 🗙